createdAt,value
2022-08-04T00:01:34.035Z,98461.31
2022-08-04T00:05:03.161Z,98464.47
2022-08-04T00:08:17.542Z,98451.50
2022-08-04T00:11:25.200Z,98462.06
2022-08-04T00:14:28.660Z,98457.47
2022-08-04T00:18:06.243Z,98448.81
2022-08-04T00:21:11.048Z,98452.28
2022-08-04T00:24:16.627Z,98452.72
2022-08-04T00:27:18.546Z,98451.94
2022-08-04T00:30:20.960Z,98459.97
2022-08-04T00:33:23.203Z,98464.34
2022-08-04T00:36:25.066Z,98463.72
2022-08-04T00:39:27.461Z,98458.31
2022-08-04T00:42:34.952Z,98464.84
2022-08-04T00:46:15.885Z,98461.84
2022-08-04T00:49:19.414Z,98458.00
2022-08-04T00:52:35.647Z,98455.50
2022-08-04T00:56:08.898Z,98456.97
2022-08-04T00:59:31.680Z,98457.28
2022-08-04T01:02:42.171Z,98460.59
2022-08-04T01:06:27.345Z,98456.81
2022-08-04T01:10:04.451Z,98454.00
2022-08-04T01:13:18.195Z,98442.13
2022-08-04T01:16:21.956Z,98449.53
2022-08-04T01:19:41.820Z,98451.75
2022-08-04T01:23:06.267Z,98459.66
2022-08-04T01:26:43.552Z,98452.06
2022-08-04T01:29:59.805Z,98458.13
2022-08-04T01:33:04.962Z,98452.13
2022-08-04T01:36:07.226Z,98449.97
2022-08-04T01:39:27.747Z,98448.47
2022-08-04T01:42:32.608Z,98438.94
2022-08-04T01:45:37.201Z,98434.38
2022-08-04T01:48:40.086Z,98440.97
2022-08-04T01:51:42.831Z,98443.97
2022-08-04T01:54:44.617Z,98433.69
2022-08-04T01:57:49.550Z,98443.31
2022-08-04T02:00:58.561Z,98445.34
2022-08-04T02:04:19.785Z,98436.63
2022-08-04T02:08:00.593Z,98431.97
2022-08-04T02:11:04.988Z,98437.44
2022-08-04T02:14:08.627Z,98439.41
2022-08-04T02:17:36.806Z,98441.16
2022-08-04T02:20:41.127Z,98423.47
2022-08-04T02:23:43.898Z,98428.41
2022-08-04T02:26:49.848Z,98442.00
2022-08-04T02:29:59.778Z,98434.56
2022-08-04T02:33:04.199Z,98437.59
2022-08-04T02:36:10.698Z,98435.59
2022-08-04T02:39:13.776Z,98437.38
2022-08-04T02:42:15.903Z,98432.22
2022-08-04T02:45:20.101Z,98432.88
2022-08-04T02:48:29.923Z,98438.78
2022-08-04T02:51:35.402Z,98440.09
2022-08-04T02:54:40.292Z,98433.22
2022-08-04T02:57:42.523Z,98435.47
2022-08-04T03:00:45.423Z,98440.09
2022-08-04T03:04:02.337Z,98439.00
2022-08-04T03:07:15.678Z,98428.66
2022-08-04T03:10:17.671Z,98433.22
2022-08-04T03:13:40.574Z,98442.34
2022-08-04T03:17:00.869Z,98437.31
2022-08-04T03:20:26.784Z,98453.88
2022-08-04T03:23:49.649Z,98463.94
2022-08-04T03:27:03.160Z,98460.78
2022-08-04T03:30:08.803Z,98458.59
2022-08-04T03:33:48.113Z,98458.41
2022-08-04T03:37:27.092Z,98441.25
2022-08-04T03:40:59.200Z,98445.88
2022-08-04T03:44:15.886Z,98450.44
2022-08-04T03:47:44.371Z,98453.13
2022-08-04T03:51:36.000Z,98458.59
2022-08-04T03:54:52.406Z,98452.09
2022-08-04T03:58:34.009Z,98455.25
2022-08-04T04:02:02.936Z,98451.41
2022-08-04T04:05:31.263Z,98454.22
2022-08-04T04:09:00.287Z,98458.03
2022-08-04T04:12:18.214Z,98452.81
2022-08-04T04:15:20.938Z,98454.53
2022-08-04T04:19:01.258Z,98457.03
2022-08-04T04:22:24.828Z,98451.44
2022-08-04T04:25:37.065Z,98449.03
2022-08-04T04:28:54.552Z,98447.47
2022-08-04T04:32:02.477Z,98456.31
2022-08-04T04:35:41.047Z,98453.19
2022-08-04T04:39:17.832Z,98458.72
2022-08-04T04:42:40.970Z,98450.19
2022-08-04T04:46:06.187Z,98462.81
2022-08-04T04:49:17.752Z,98464.91
2022-08-04T04:53:17.278Z,98476.44
2022-08-04T04:56:29.625Z,98486.69
2022-08-04T04:59:35.631Z,98485.72
2022-08-04T05:02:37.289Z,98499.13
2022-08-04T05:06:08.372Z,98494.63
2022-08-04T05:09:12.830Z,98489.59
2022-08-04T05:14:32.367Z,98494.78
2022-08-04T05:16:02.465Z,98496.84
2022-08-04T05:19:10.295Z,98504.75
2022-08-04T05:22:19.067Z,98502.41
2022-08-04T05:25:37.679Z,98501.78
2022-08-04T05:28:49.995Z,98511.25
2022-08-04T05:31:53.567Z,98499.44
2022-08-04T05:35:08.579Z,98505.13
2022-08-04T05:38:12.434Z,98504.03
2022-08-04T05:41:14.710Z,98497.72
2022-08-04T05:44:21.506Z,98504.81
2022-08-04T05:47:24.753Z,98507.81
2022-08-04T05:50:26.595Z,98515.06
2022-08-04T05:53:28.518Z,98518.69
2022-08-04T05:56:33.141Z,98509.56
2022-08-04T05:59:38.181Z,98520.97
2022-08-04T06:02:40.923Z,98511.34
2022-08-04T06:05:43.614Z,98524.63
2022-08-04T06:08:45.369Z,98514.06
2022-08-04T06:12:02.096Z,98519.28
2022-08-04T06:15:06.923Z,98523.22
2022-08-04T06:19:56.613Z,98524.50
2022-08-04T06:21:33.418Z,98539.47
2022-08-04T06:24:36.478Z,98547.34
2022-08-04T06:27:38.778Z,98551.31
2022-08-04T06:30:41.098Z,98550.69
2022-08-04T06:33:55.061Z,98545.00
2022-08-04T06:36:57.478Z,98553.53
2022-08-04T06:40:00.738Z,98557.19
2022-08-04T06:43:04.811Z,98547.72
2022-08-04T06:46:07.078Z,98549.94
2022-08-04T06:49:08.847Z,98548.19
2022-08-04T06:52:10.614Z,98558.75
2022-08-04T06:55:13.429Z,98553.84
2022-08-04T06:58:15.810Z,98553.25
2022-08-04T07:01:19.492Z,98557.97
2022-08-04T07:04:21.390Z,98564.59
2022-08-04T07:07:33.985Z,98564.31
2022-08-04T07:10:39.415Z,98570.47
2022-08-04T07:13:45.167Z,98589.22
2022-08-04T07:16:48.706Z,98566.81
2022-08-04T07:19:50.447Z,98574.84
2022-08-04T07:22:52.198Z,98578.75
2022-08-04T07:25:59.570Z,98587.09
2022-08-04T07:29:14.634Z,98580.91
2022-08-04T07:32:17.467Z,98585.38
2022-08-04T07:36:10.517Z,98594.88
2022-08-04T07:38:50.721Z,98581.97
2022-08-04T07:41:53.962Z,98585.75
2022-08-04T07:44:55.494Z,98583.22
2022-08-04T07:48:04.908Z,98588.78
2022-08-04T07:51:08.214Z,98593.38
2022-08-04T07:54:11.128Z,98597.00
2022-08-04T07:57:19.582Z,98611.81
2022-08-04T08:00:34.903Z,98604.91
2022-08-04T08:03:37.599Z,98598.56
2022-08-04T08:06:43.542Z,98608.81
2022-08-04T08:09:45.427Z,98603.28
2022-08-04T08:12:51.249Z,98596.50
2022-08-04T08:15:53.901Z,98602.97
2022-08-04T08:18:56.155Z,98611.19
2022-08-04T08:21:58.443Z,98594.63
2022-08-04T08:25:02.024Z,98598.56
2022-08-04T08:28:05.195Z,98605.69
2022-08-04T08:31:07.348Z,98606.44
2022-08-04T08:34:11.505Z,98613.25
2022-08-04T08:37:42.220Z,98610.97
2022-08-04T08:41:21.000Z,98612.75
2022-08-04T08:44:40.544Z,98614.66
2022-08-04T08:48:06.240Z,98618.59
2022-08-04T08:51:25.049Z,98629.66
2022-08-04T08:54:35.951Z,98623.69
2022-08-04T08:58:14.671Z,98627.16
2022-08-04T09:01:25.850Z,98634.09
2022-08-04T09:04:39.530Z,98633.94
2022-08-04T09:08:04.082Z,98630.59
2022-08-04T09:11:47.119Z,98638.91
2022-08-04T09:14:55.987Z,98620.03
2022-08-04T09:18:09.783Z,98633.91
2022-08-04T09:21:31.106Z,98633.13
2022-08-04T09:24:54.985Z,98623.25
2022-08-04T09:28:09.161Z,98627.59
2022-08-04T09:31:14.977Z,98639.00
2022-08-04T09:34:26.916Z,98660.03
2022-08-04T09:37:46.038Z,98648.66
2022-08-04T09:40:53.139Z,98627.44
2022-08-04T09:44:49.270Z,98638.53
2022-08-04T09:47:57.672Z,98607.75
2022-08-04T09:51:00.089Z,98653.53
2022-08-04T09:54:02.969Z,98672.28
2022-08-04T09:57:37.236Z,98668.41
2022-08-04T10:00:48.864Z,98676.03
2022-08-04T10:03:53.453Z,98668.56
2022-08-04T10:07:04.203Z,98684.66
2022-08-04T10:10:28.644Z,98670.38
2022-08-04T10:14:01.619Z,98660.94
2022-08-04T10:17:17.093Z,98689.88
2022-08-04T10:20:45.987Z,98698.41
2022-08-04T10:23:55.691Z,98706.63
2022-08-04T10:27:17.515Z,98681.44
2022-08-04T10:30:20.607Z,98695.19
2022-08-04T10:33:26.099Z,98654.69
2022-08-04T10:36:32.799Z,98682.66
2022-08-04T10:40:05.379Z,98685.00
2022-08-04T10:43:24.603Z,98733.69
2022-08-04T10:46:36.458Z,98741.25
2022-08-04T10:49:43.526Z,98727.69
2022-08-04T10:52:49.382Z,98703.16
2022-08-04T10:56:05.494Z,98733.84
2022-08-04T10:59:17.166Z,98744.31
2022-08-04T11:02:45.464Z,98755.78
2022-08-04T11:06:05.055Z,98765.84
2022-08-04T11:09:07.567Z,98780.84
2022-08-04T11:12:20.067Z,98755.94
2022-08-04T11:15:34.574Z,98760.28
2022-08-04T11:18:50.024Z,98781.13
2022-08-04T11:22:06.174Z,98777.38
2022-08-04T11:25:22.206Z,98765.19
2022-08-04T11:28:34.449Z,98787.66
2022-08-04T11:31:46.229Z,98756.59
2022-08-04T11:34:57.300Z,98797.84
2022-08-04T11:38:08.018Z,98824.66
2022-08-04T11:41:13.576Z,98809.69
2022-08-04T11:44:30.614Z,98802.66
2022-08-04T11:47:39.747Z,98811.91
2022-08-04T11:50:53.080Z,98813.88
2022-08-04T11:53:56.311Z,98829.44
2022-08-04T11:56:58.042Z,98821.09
2022-08-04T12:00:06.992Z,98820.59
2022-08-04T12:03:20.616Z,98820.00
2022-08-04T12:06:28.082Z,98844.28
2022-08-04T12:09:44.645Z,98791.94
2022-08-04T12:13:02.206Z,98831.03
2022-08-04T12:16:32.954Z,98825.66
2022-08-04T12:20:03.755Z,98834.06
2022-08-04T12:23:15.172Z,98807.50
2022-08-04T12:26:27.718Z,98855.66
2022-08-04T12:29:29.269Z,98822.50
2022-08-04T12:32:53.742Z,98826.31
2022-08-04T12:36:11.546Z,98862.63
2022-08-04T12:39:20.451Z,98887.44
2022-08-04T12:42:23.244Z,98875.97
2022-08-04T12:45:25.595Z,98867.41
2022-08-04T12:48:27.131Z,98882.41
2022-08-04T12:52:06.646Z,98864.31
2022-08-04T12:54:54.102Z,98874.50
2022-08-04T12:57:56.688Z,98895.59
2022-08-04T13:02:07.812Z,98882.19
2022-08-04T13:04:29.208Z,98882.06
2022-08-04T13:07:44.094Z,98883.28
2022-08-04T13:10:47.475Z,98859.06
2022-08-04T13:14:17.239Z,98885.75
2022-08-04T13:17:16.236Z,98879.16
2022-08-04T13:20:26.595Z,98876.16
2022-08-04T13:23:28.734Z,98877.75
2022-08-04T13:27:03.881Z,98893.28
2022-08-04T13:30:06.311Z,98882.13
2022-08-04T13:33:11.112Z,98878.19
2022-08-04T13:36:12.735Z,98876.88
2022-08-04T13:39:19.434Z,98886.84
2022-08-04T13:42:22.682Z,98921.03
2022-08-04T13:45:33.818Z,98882.34
2022-08-04T13:48:39.021Z,98902.41
2022-08-04T13:51:58.401Z,98877.53
2022-08-04T13:55:00.639Z,98906.06
2022-08-04T13:58:11.107Z,98904.63
2022-08-04T14:01:20.787Z,98881.16
2022-08-04T14:04:42.295Z,98903.69
2022-08-04T14:08:09.511Z,98912.78
2022-08-04T14:12:06.251Z,98899.59
2022-08-04T14:14:36.328Z,98908.84
2022-08-04T14:17:38.024Z,98903.75
2022-08-04T14:20:57.881Z,98888.31
2022-08-04T14:24:00.527Z,98897.19
2022-08-04T14:27:02.264Z,98898.84
2022-08-04T14:30:04.267Z,98893.66
2022-08-04T14:34:01.574Z,98891.38
2022-08-04T14:37:13.109Z,98906.19
2022-08-04T14:40:18.089Z,98905.59
2022-08-04T14:43:29.739Z,98896.31
2022-08-04T14:46:36.421Z,98911.06
2022-08-04T14:49:54.162Z,98919.47
2022-08-04T14:53:04.625Z,98904.34
2022-08-04T14:56:10.063Z,98921.44
2022-08-04T14:59:17.794Z,98922.84
2022-08-04T15:02:19.556Z,98912.78
2022-08-04T15:05:55.002Z,98909.75
2022-08-04T15:08:47.213Z,98928.13
2022-08-04T15:11:49.303Z,98906.97
2022-08-04T15:14:51.076Z,98921.78
2022-08-04T15:17:53.128Z,98929.94
2022-08-04T15:20:54.772Z,98927.66
2022-08-04T15:23:57.589Z,98924.59
2022-08-04T15:27:00.145Z,98928.16
2022-08-04T15:30:11.071Z,98930.81
2022-08-04T15:33:21.987Z,98933.22
2022-08-04T15:36:41.846Z,98921.00
2022-08-04T15:39:52.490Z,98936.16
2022-08-04T15:43:25.088Z,98945.31
2022-08-04T15:46:49.834Z,98944.34
2022-08-04T15:50:06.750Z,98937.00
2022-08-04T15:53:10.753Z,98930.94
2022-08-04T15:56:23.856Z,98948.66
2022-08-04T16:00:04.452Z,98944.25
2022-08-04T16:03:57.930Z,98956.75
2022-08-04T16:07:05.413Z,98955.38
2022-08-04T16:10:32.635Z,98961.81
2022-08-04T16:13:34.334Z,98955.59
2022-08-04T16:16:39.612Z,98956.16
2022-08-04T16:19:44.935Z,98939.34
2022-08-04T16:22:49.091Z,98953.59
2022-08-04T16:25:52.132Z,98961.53
2022-08-04T16:28:54.328Z,98969.13
2022-08-04T16:32:05.178Z,98947.03
2022-08-04T16:35:28.665Z,98940.78
2022-08-04T16:38:30.428Z,98958.34
2022-08-04T16:41:40.268Z,98956.00
2022-08-04T16:44:57.452Z,98964.88
2022-08-04T16:48:02.484Z,98969.28
2022-08-04T16:51:15.150Z,98949.09
2022-08-04T16:54:16.971Z,98971.50
2022-08-04T16:57:18.788Z,98971.22
2022-08-04T17:00:39.214Z,98961.44
2022-08-04T17:03:44.235Z,98957.06
2022-08-04T17:07:01.792Z,98976.81
2022-08-04T17:10:03.723Z,98963.06
2022-08-04T17:14:02.265Z,98977.78
2022-08-04T17:17:00.182Z,98974.59
2022-08-04T17:21:10.775Z,98973.59
2022-08-04T17:24:17.466Z,98973.63
2022-08-04T17:28:10.964Z,98997.34
2022-08-04T17:30:47.816Z,98969.25
2022-08-04T17:33:56.621Z,98980.81
2022-08-04T17:40:26.661Z,98993.59
2022-08-04T17:44:04.923Z,98979.94
2022-08-04T17:47:21.352Z,98985.91
2022-08-04T17:50:27.390Z,98998.44
2022-08-04T17:54:01.451Z,99002.00
2022-08-04T17:56:59.624Z,98999.84
2022-08-04T18:00:01.408Z,99004.53
2022-08-04T18:03:03.260Z,98999.13
2022-08-04T18:06:12.473Z,98991.44
2022-08-04T18:09:22.599Z,99011.88
2022-08-04T18:12:37.057Z,99018.50
2022-08-04T18:15:46.295Z,99015.22
2022-08-04T18:19:07.969Z,99017.06
2022-08-04T18:22:14.128Z,99012.97
2022-08-04T18:25:21.519Z,99021.31
2022-08-04T18:28:26.514Z,99014.97
2022-08-04T18:31:28.913Z,99015.66
2022-08-04T18:34:54.618Z,99025.06
2022-08-04T18:38:06.492Z,99017.84
2022-08-04T18:41:13.114Z,99028.50
2022-08-04T18:44:14.995Z,99013.69
2022-08-04T18:47:19.759Z,99045.25
2022-08-04T18:50:40.010Z,99050.41
2022-08-04T18:53:54.877Z,99052.69
2022-08-04T19:00:32.084Z,99051.44
2022-08-04T19:03:33.805Z,99056.31
2022-08-04T19:06:38.534Z,99071.38
2022-08-04T19:09:51.343Z,99071.38
2022-08-04T19:12:54.103Z,99079.00
2022-08-04T19:15:58.472Z,99081.50
2022-08-04T19:19:02.025Z,99081.88
2022-08-04T19:22:07.446Z,99082.28
2022-08-04T19:25:10.033Z,99088.22
2022-08-04T19:28:17.573Z,99092.84
2022-08-04T19:31:20.511Z,99092.00
2022-08-04T19:34:34.630Z,99097.03
2022-08-04T19:37:56.889Z,99097.28
2022-08-04T19:40:58.642Z,99102.66
2022-08-04T19:44:00.405Z,99105.09
2022-08-04T19:47:02.481Z,99107.81
2022-08-04T19:50:24.096Z,99099.59
2022-08-04T19:53:36.957Z,99111.88
2022-08-04T19:56:41.297Z,99101.81
2022-08-04T19:59:48.383Z,99120.41
2022-08-04T20:02:50.350Z,99109.28
2022-08-04T20:05:53.370Z,99124.91
2022-08-04T20:08:57.264Z,99107.25
2022-08-04T20:11:59.101Z,99123.16
2022-08-04T20:15:01.052Z,99121.72
2022-08-04T20:18:35.115Z,99137.06
2022-08-04T20:21:54.435Z,99135.56
2022-08-04T20:24:59.954Z,99142.81
2022-08-04T20:28:03.062Z,99140.13
2022-08-04T20:31:04.938Z,99143.59
2022-08-04T20:34:09.707Z,99138.84
2022-08-04T20:37:11.594Z,99148.22
2022-08-04T20:40:15.844Z,99148.38
2022-08-04T20:43:18.135Z,99155.00
2022-08-04T20:46:29.514Z,99168.25
2022-08-04T20:49:35.196Z,99163.06
2022-08-04T20:52:38.035Z,99165.63
2022-08-04T20:55:55.350Z,99175.88
2022-08-04T20:58:58.114Z,99169.00
2022-08-04T21:01:59.886Z,99175.44
2022-08-04T21:05:02.224Z,99172.25
2022-08-04T21:08:04.501Z,99177.13
2022-08-04T21:11:06.960Z,99180.06
2022-08-04T21:14:11.973Z,99180.63
2022-08-04T21:17:16.916Z,99184.59
2022-08-04T21:20:24.588Z,99179.28
2022-08-04T21:23:29.644Z,99185.66
2022-08-04T21:26:36.006Z,99196.06
2022-08-04T21:29:39.334Z,99189.94
2022-08-04T21:32:41.883Z,99190.75
2022-08-04T21:35:43.702Z,99193.69
2022-08-04T21:42:28.137Z,99193.72
2022-08-04T21:45:36.067Z,99193.69
2022-08-04T21:48:39.264Z,99194.22
2022-08-04T21:51:57.706Z,99206.53
2022-08-04T21:55:02.755Z,99205.47
2022-08-04T21:58:05.533Z,99210.81
2022-08-04T22:01:12.635Z,99206.56
2022-08-04T22:04:15.126Z,99211.31
2022-08-04T22:07:17.019Z,99213.44
2022-08-04T22:10:32.199Z,99217.72
2022-08-04T22:13:52.670Z,99224.38
2022-08-04T22:16:57.784Z,99208.94
2022-08-04T22:20:01.976Z,99209.22
2022-08-04T22:23:15.680Z,99208.44
2022-08-04T22:26:26.996Z,99216.16
2022-08-04T22:29:28.895Z,99215.59
2022-08-04T22:32:32.827Z,99206.56
2022-08-04T22:35:44.430Z,99216.69
2022-08-04T22:38:58.013Z,99219.63
2022-08-04T22:42:08.121Z,99218.81
2022-08-04T22:45:15.354Z,99216.44
2022-08-04T22:48:17.730Z,99222.53
2022-08-04T22:51:20.346Z,99221.19
2022-08-04T22:54:25.991Z,99220.13
2022-08-04T22:57:43.662Z,99224.63
2022-08-04T23:00:54.114Z,99213.44
2022-08-04T23:03:59.953Z,99218.78
2022-08-04T23:07:05.230Z,99207.63
2022-08-04T23:10:11.075Z,99207.59
2022-08-04T23:13:13.335Z,99212.41
2022-08-04T23:16:15.029Z,99206.81
2022-08-04T23:19:19.525Z,99202.03
2022-08-04T23:22:37.057Z,99206.56
2022-08-04T23:26:02.627Z,99211.34
2022-08-04T23:29:07.247Z,99208.97
2022-08-04T23:32:09.297Z,99207.38
2022-08-04T23:35:10.962Z,99206.31
2022-08-04T23:38:30.077Z,99202.81
2022-08-04T23:41:53.612Z,99202.84
2022-08-04T23:44:56.495Z,99208.69
2022-08-04T23:48:15.242Z,99211.34
2022-08-04T23:51:20.479Z,99213.75
2022-08-04T23:54:25.895Z,99215.06
2022-08-04T23:58:02.357Z,99216.41
